sensor_id;sensor_type;location;lat;lon;timestamp;temperature;humidity
65582;DHT22;52231;40.090;18.348;2023-07-02T00:01:10;22.80;89.20
65582;DHT22;52231;40.090;18.348;2023-07-02T00:03:39;22.80;89.10
65582;DHT22;52231;40.090;18.348;2023-07-02T00:06:07;22.80;89.10
65582;DHT22;52231;40.090;18.348;2023-07-02T00:08:35;22.80;89.00
65582;DHT22;52231;40.090;18.348;2023-07-02T00:11:03;22.70;88.90
65582;DHT22;52231;40.090;18.348;2023-07-02T00:13:31;22.70;88.90
65582;DHT22;52231;40.090;18.348;2023-07-02T00:15:59;22.70;88.80
65582;DHT22;52231;40.090;18.348;2023-07-02T00:18:28;22.70;88.70
65582;DHT22;52231;40.090;18.348;2023-07-02T00:21:02;22.70;88.60
65582;DHT22;52231;40.090;18.348;2023-07-02T00:23:31;22.60;88.60
65582;DHT22;52231;40.090;18.348;2023-07-02T00:25:59;22.70;88.60
65582;DHT22;52231;40.090;18.348;2023-07-02T00:28:27;22.70;88.50
65582;DHT22;52231;40.090;18.348;2023-07-02T00:30:55;22.70;88.40
65582;DHT22;52231;40.090;18.348;2023-07-02T00:33:23;22.70;88.30
65582;DHT22;52231;40.090;18.348;2023-07-02T00:35:52;22.60;88.20
65582;DHT22;52231;40.090;18.348;2023-07-02T00:38:20;22.60;88.20
65582;DHT22;52231;40.090;18.348;2023-07-02T00:40:49;22.60;88.10
65582;DHT22;52231;40.090;18.348;2023-07-02T00:43:17;22.60;88.10
65582;DHT22;52231;40.090;18.348;2023-07-02T00:45:46;22.50;88.00
65582;DHT22;52231;40.090;18.348;2023-07-02T00:48:14;22.40;88.10
65582;DHT22;52231;40.090;18.348;2023-07-02T00:50:43;22.40;88.10
65582;DHT22;52231;40.090;18.348;2023-07-02T00:53:11;22.40;88.10
65582;DHT22;52231;40.090;18.348;2023-07-02T00:55:40;22.30;88.20
65582;DHT22;52231;40.090;18.348;2023-07-02T00:58:08;22.30;88.20
65582;DHT22;52231;40.090;18.348;2023-07-02T01:00:38;22.30;88.20
65582;DHT22;52231;40.090;18.348;2023-07-02T01:03:07;22.30;88.20
65582;DHT22;52231;40.090;18.348;2023-07-02T01:05:36;22.30;88.20
65582;DHT22;52231;40.090;18.348;2023-07-02T01:08:04;22.30;88.10
65582;DHT22;52231;40.090;18.348;2023-07-02T01:10:33;22.30;88.10
65582;DHT22;52231;40.090;18.348;2023-07-02T01:13:14;22.30;88.10
65582;DHT22;52231;40.090;18.348;2023-07-02T01:15:44;22.20;88.00
65582;DHT22;52231;40.090;18.348;2023-07-02T01:18:14;22.10;87.90
65582;DHT22;52231;40.090;18.348;2023-07-02T01:20:43;22.10;87.80
65582;DHT22;52231;40.090;18.348;2023-07-02T01:23:12;22.00;87.90
65582;DHT22;52231;40.090;18.348;2023-07-02T01:25:40;22.00;88.00
65582;DHT22;52231;40.090;18.348;2023-07-02T01:28:08;22.00;88.10
65582;DHT22;52231;40.090;18.348;2023-07-02T01:30:38;22.00;88.10
65582;DHT22;52231;40.090;18.348;2023-07-02T01:33:07;22.00;88.10
65582;DHT22;52231;40.090;18.348;2023-07-02T01:35:35;21.90;88.20
65582;DHT22;52231;40.090;18.348;2023-07-02T01:38:03;21.90;88.20
65582;DHT22;52231;40.090;18.348;2023-07-02T01:40:32;21.90;88.40
65582;DHT22;52231;40.090;18.348;2023-07-02T01:43:00;21.90;88.50
65582;DHT22;52231;40.090;18.348;2023-07-02T01:45:28;21.90;88.50
65582;DHT22;52231;40.090;18.348;2023-07-02T01:47:56;21.80;88.60
65582;DHT22;52231;40.090;18.348;2023-07-02T01:50:27;21.90;88.70
65582;DHT22;52231;40.090;18.348;2023-07-02T01:52:59;21.80;88.70
65582;DHT22;52231;40.090;18.348;2023-07-02T01:55:28;21.80;88.80
65582;DHT22;52231;40.090;18.348;2023-07-02T01:57:56;21.80;88.80
65582;DHT22;52231;40.090;18.348;2023-07-02T02:00:24;21.80;88.80
65582;DHT22;52231;40.090;18.348;2023-07-02T02:02:52;21.80;88.80
65582;DHT22;52231;40.090;18.348;2023-07-02T02:05:21;21.70;88.90
65582;DHT22;52231;40.090;18.348;2023-07-02T02:07:50;21.70;88.90
65582;DHT22;52231;40.090;18.348;2023-07-02T02:10:18;21.60;88.90
65582;DHT22;52231;40.090;18.348;2023-07-02T02:12:47;21.60;88.90
65582;DHT22;52231;40.090;18.348;2023-07-02T02:15:15;21.60;89.00
65582;DHT22;52231;40.090;18.348;2023-07-02T02:17:44;21.50;89.00
65582;DHT22;52231;40.090;18.348;2023-07-02T02:20:13;21.60;89.10
65582;DHT22;52231;40.090;18.348;2023-07-02T02:22:41;21.50;89.20
65582;DHT22;52231;40.090;18.348;2023-07-02T02:25:09;21.50;89.20
65582;DHT22;52231;40.090;18.348;2023-07-02T02:27:37;21.50;89.30
65582;DHT22;52231;40.090;18.348;2023-07-02T02:30:06;21.50;89.30
65582;DHT22;52231;40.090;18.348;2023-07-02T02:32:35;21.40;89.30
65582;DHT22;52231;40.090;18.348;2023-07-02T02:35:08;21.40;89.30
65582;DHT22;52231;40.090;18.348;2023-07-02T02:37:38;21.40;89.20
65582;DHT22;52231;40.090;18.348;2023-07-02T02:40:08;21.30;89.10
65582;DHT22;52231;40.090;18.348;2023-07-02T02:42:39;21.30;89.10
65582;DHT22;52231;40.090;18.348;2023-07-02T02:45:08;21.30;89.00
65582;DHT22;52231;40.090;18.348;2023-07-02T02:47:37;21.30;89.00
65582;DHT22;52231;40.090;18.348;2023-07-02T02:50:06;21.30;89.00
65582;DHT22;52231;40.090;18.348;2023-07-02T02:52:35;21.30;88.90
65582;DHT22;52231;40.090;18.348;2023-07-02T02:55:04;21.20;88.90
65582;DHT22;52231;40.090;18.348;2023-07-02T02:57:33;21.20;88.80
65582;DHT22;52231;40.090;18.348;2023-07-02T03:00:02;21.20;88.80
65582;DHT22;52231;40.090;18.348;2023-07-02T03:02:30;21.10;88.70
65582;DHT22;52231;40.090;18.348;2023-07-02T03:04:59;21.10;88.60
65582;DHT22;52231;40.090;18.348;2023-07-02T03:07:30;21.10;88.50
65582;DHT22;52231;40.090;18.348;2023-07-02T03:09:59;21.00;88.30
65582;DHT22;52231;40.090;18.348;2023-07-02T03:12:27;20.90;87.60
65582;DHT22;52231;40.090;18.348;2023-07-02T03:14:56;20.90;87.10
65582;DHT22;52231;40.090;18.348;2023-07-02T03:17:24;20.80;86.10
65582;DHT22;52231;40.090;18.348;2023-07-02T03:19:54;20.80;85.60
65582;DHT22;52231;40.090;18.348;2023-07-02T03:22:22;20.70;85.20
65582;DHT22;52231;40.090;18.348;2023-07-02T03:24:50;20.60;84.70
65582;DHT22;52231;40.090;18.348;2023-07-02T03:27:18;20.60;84.60
65582;DHT22;52231;40.090;18.348;2023-07-02T03:29:46;20.60;84.00
65582;DHT22;52231;40.090;18.348;2023-07-02T03:32:14;20.60;83.80
65582;DHT22;52231;40.090;18.348;2023-07-02T03:34:42;20.60;83.30
65582;DHT22;52231;40.090;18.348;2023-07-02T03:37:10;20.60;83.00
65582;DHT22;52231;40.090;18.348;2023-07-02T03:39:39;20.50;82.60
65582;DHT22;52231;40.090;18.348;2023-07-02T03:42:07;20.60;81.90
65582;DHT22;52231;40.090;18.348;2023-07-02T03:44:35;20.60;81.70
65582;DHT22;52231;40.090;18.348;2023-07-02T03:47:04;20.70;80.90
65582;DHT22;52231;40.090;18.348;2023-07-02T03:49:32;20.70;80.30
65582;DHT22;52231;40.090;18.348;2023-07-02T03:52:00;20.80;79.80
65582;DHT22;52231;40.090;18.348;2023-07-02T03:54:28;20.90;79.60
65582;DHT22;52231;40.090;18.348;2023-07-02T03:56:57;21.00;79.20
65582;DHT22;52231;40.090;18.348;2023-07-02T03:59:25;21.20;78.70
65582;DHT22;52231;40.090;18.348;2023-07-02T04:01:53;21.30;77.90
65582;DHT22;52231;40.090;18.348;2023-07-02T04:04:22;21.50;77.30
65582;DHT22;52231;40.090;18.348;2023-07-02T04:06:50;21.70;76.30
65582;DHT22;52231;40.090;18.348;2023-07-02T04:09:18;22.00;75.80
65582;DHT22;52231;40.090;18.348;2023-07-02T04:11:46;22.40;74.20
65582;DHT22;52231;40.090;18.348;2023-07-02T04:14:15;22.80;72.50
65582;DHT22;52231;40.090;18.348;2023-07-02T04:16:43;23.40;70.50
65582;DHT22;52231;40.090;18.348;2023-07-02T04:19:12;24.20;68.10
65582;DHT22;52231;40.090;18.348;2023-07-02T04:21:41;25.00;65.90
65582;DHT22;52231;40.090;18.348;2023-07-02T04:24:09;25.80;63.20
65582;DHT22;52231;40.090;18.348;2023-07-02T04:26:37;26.60;60.30
65582;DHT22;52231;40.090;18.348;2023-07-02T04:29:05;27.30;58.40
65582;DHT22;52231;40.090;18.348;2023-07-02T04:31:33;27.80;55.90
65582;DHT22;52231;40.090;18.348;2023-07-02T04:34:02;28.30;54.60
65582;DHT22;52231;40.090;18.348;2023-07-02T04:36:30;28.90;53.00
65582;DHT22;52231;40.090;18.348;2023-07-02T04:38:58;29.40;51.00
65582;DHT22;52231;40.090;18.348;2023-07-02T04:41:27;29.80;49.00
65582;DHT22;52231;40.090;18.348;2023-07-02T04:43:56;30.30;48.30
65582;DHT22;52231;40.090;18.348;2023-07-02T04:46:24;30.80;46.40
65582;DHT22;52231;40.090;18.348;2023-07-02T04:48:53;31.20;45.50
65582;DHT22;52231;40.090;18.348;2023-07-02T04:51:21;31.50;44.30
65582;DHT22;52231;40.090;18.348;2023-07-02T04:53:49;31.80;43.40
65582;DHT22;52231;40.090;18.348;2023-07-02T04:56:18;32.00;42.30
65582;DHT22;52231;40.090;18.348;2023-07-02T04:58:46;32.20;41.80
65582;DHT22;52231;40.090;18.348;2023-07-02T05:01:14;32.30;41.40
65582;DHT22;52231;40.090;18.348;2023-07-02T05:03:43;32.20;41.40
65582;DHT22;52231;40.090;18.348;2023-07-02T05:06:11;31.90;41.70
65582;DHT22;52231;40.090;18.348;2023-07-02T05:08:40;31.70;41.20
65582;DHT22;52231;40.090;18.348;2023-07-02T05:11:09;31.40;42.10
65582;DHT22;52231;40.090;18.348;2023-07-02T05:13:38;31.30;42.40
65582;DHT22;52231;40.090;18.348;2023-07-02T05:16:06;31.00;42.10
65582;DHT22;52231;40.090;18.348;2023-07-02T05:18:34;30.60;43.30
65582;DHT22;52231;40.090;18.348;2023-07-02T05:21:02;30.50;43.50
65582;DHT22;52231;40.090;18.348;2023-07-02T05:23:31;30.40;44.00
65582;DHT22;52231;40.090;18.348;2023-07-02T05:25:59;30.40;43.70
65582;DHT22;52231;40.090;18.348;2023-07-02T05:28:27;30.50;42.50
65582;DHT22;52231;40.090;18.348;2023-07-02T05:30:55;30.50;42.60
65582;DHT22;52231;40.090;18.348;2023-07-02T05:33:23;30.70;42.40
65582;DHT22;52231;40.090;18.348;2023-07-02T05:35:51;30.90;42.60
65582;DHT22;52231;40.090;18.348;2023-07-02T05:38:19;30.90;42.50
65582;DHT22;52231;40.090;18.348;2023-07-02T05:40:47;30.80;42.60
65582;DHT22;52231;40.090;18.348;2023-07-02T05:43:16;30.90;42.40
65582;DHT22;52231;40.090;18.348;2023-07-02T05:45:44;31.20;42.40
65582;DHT22;52231;40.090;18.348;2023-07-02T05:48:16;31.50;41.70
65582;DHT22;52231;40.090;18.348;2023-07-02T05:50:45;31.40;41.50
65582;DHT22;52231;40.090;18.348;2023-07-02T05:53:13;31.80;41.40
65582;DHT22;52231;40.090;18.348;2023-07-02T05:55:42;31.90;40.90
65582;DHT22;52231;40.090;18.348;2023-07-02T05:58:11;31.90;40.80
65582;DHT22;52231;40.090;18.348;2023-07-02T06:00:39;32.20;40.90
65582;DHT22;52231;40.090;18.348;2023-07-02T06:03:09;32.10;40.90
65582;DHT22;52231;40.090;18.348;2023-07-02T06:05:37;32.30;40.90
65582;DHT22;52231;40.090;18.348;2023-07-02T06:08:05;32.10;40.50
65582;DHT22;52231;40.090;18.348;2023-07-02T06:10:33;32.20;40.60
65582;DHT22;52231;40.090;18.348;2023-07-02T06:13:02;32.30;40.40
65582;DHT22;52231;40.090;18.348;2023-07-02T06:15:31;32.50;41.00
65582;DHT22;52231;40.090;18.348;2023-07-02T06:17:59;32.40;41.00
65582;DHT22;52231;40.090;18.348;2023-07-02T06:20:27;32.80;40.70
65582;DHT22;52231;40.090;18.348;2023-07-02T06:22:55;33.10;39.90
65582;DHT22;52231;40.090;18.348;2023-07-02T06:25:24;33.20;40.40
65582;DHT22;52231;40.090;18.348;2023-07-02T06:27:52;33.30;39.30
65582;DHT22;52231;40.090;18.348;2023-07-02T06:30:22;33.10;39.60
65582;DHT22;52231;40.090;18.348;2023-07-02T06:32:51;32.80;40.40
65582;DHT22;52231;40.090;18.348;2023-07-02T06:35:19;32.80;40.70
65582;DHT22;52231;40.090;18.348;2023-07-02T06:37:48;32.80;40.70
65582;DHT22;52231;40.090;18.348;2023-07-02T06:40:16;32.90;41.00
65582;DHT22;52231;40.090;18.348;2023-07-02T06:42:44;32.90;40.10
65582;DHT22;52231;40.090;18.348;2023-07-02T06:45:12;32.70;40.70
65582;DHT22;52231;40.090;18.348;2023-07-02T06:47:41;32.90;40.50
65582;DHT22;52231;40.090;18.348;2023-07-02T06:50:09;33.10;40.60
65582;DHT22;52231;40.090;18.348;2023-07-02T06:52:37;33.40;39.30
65582;DHT22;52231;40.090;18.348;2023-07-02T06:55:06;33.50;39.60
65582;DHT22;52231;40.090;18.348;2023-07-02T06:57:34;33.60;39.50
65582;DHT22;52231;40.090;18.348;2023-07-02T07:00:03;33.60;38.90
65582;DHT22;52231;40.090;18.348;2023-07-02T07:02:31;33.40;39.40
65582;DHT22;52231;40.090;18.348;2023-07-02T07:04:59;33.70;39.60
65582;DHT22;52231;40.090;18.348;2023-07-02T07:07:28;34.00;38.60
65582;DHT22;52231;40.090;18.348;2023-07-02T07:09:56;34.00;38.10
65582;DHT22;52231;40.090;18.348;2023-07-02T07:12:24;33.80;38.80
65582;DHT22;52231;40.090;18.348;2023-07-02T07:14:52;33.90;38.20
65582;DHT22;52231;40.090;18.348;2023-07-02T07:17:21;34.00;38.30
65582;DHT22;52231;40.090;18.348;2023-07-02T07:19:49;34.30;37.40
65582;DHT22;52231;40.090;18.348;2023-07-02T07:22:17;34.20;36.70
65582;DHT22;52231;40.090;18.348;2023-07-02T07:24:45;33.90;37.10
65582;DHT22;52231;40.090;18.348;2023-07-02T07:27:14;34.40;36.80
65582;DHT22;52231;40.090;18.348;2023-07-02T07:29:42;34.90;36.50
65582;DHT22;52231;40.090;18.348;2023-07-02T07:32:10;35.20;34.20
65582;DHT22;52231;40.090;18.348;2023-07-02T07:34:42;35.10;35.00
65582;DHT22;52231;40.090;18.348;2023-07-02T07:37:10;35.30;34.90
65582;DHT22;52231;40.090;18.348;2023-07-02T07:39:39;35.70;34.40
65582;DHT22;52231;40.090;18.348;2023-07-02T07:42:07;36.00;34.30
65582;DHT22;52231;40.090;18.348;2023-07-02T07:44:36;36.30;33.10
65582;DHT22;52231;40.090;18.348;2023-07-02T07:47:04;36.00;34.10
65582;DHT22;52231;40.090;18.348;2023-07-02T07:49:32;35.80;34.80
65582;DHT22;52231;40.090;18.348;2023-07-02T07:52:01;35.60;35.20
65582;DHT22;52231;40.090;18.348;2023-07-02T07:54:29;35.40;35.00
65582;DHT22;52231;40.090;18.348;2023-07-02T07:56:57;35.40;35.30
65582;DHT22;52231;40.090;18.348;2023-07-02T07:59:26;35.80;35.40
65582;DHT22;52231;40.090;18.348;2023-07-02T08:01:54;35.90;34.40
65582;DHT22;52231;40.090;18.348;2023-07-02T08:04:22;36.00;34.40
65582;DHT22;52231;40.090;18.348;2023-07-02T08:06:50;36.30;34.30
65582;DHT22;52231;40.090;18.348;2023-07-02T08:09:18;36.50;34.60
65582;DHT22;52231;40.090;18.348;2023-07-02T08:11:46;36.90;34.50
65582;DHT22;52231;40.090;18.348;2023-07-02T08:14:16;37.00;34.10
65582;DHT22;52231;40.090;18.348;2023-07-02T08:16:46;36.90;34.10
65582;DHT22;52231;40.090;18.348;2023-07-02T08:19:15;36.60;34.30
65582;DHT22;52231;40.090;18.348;2023-07-02T08:21:43;36.40;34.70
65582;DHT22;52231;40.090;18.348;2023-07-02T08:24:11;36.10;34.60
65582;DHT22;52231;40.090;18.348;2023-07-02T08:26:40;35.70;34.60
65582;DHT22;52231;40.090;18.348;2023-07-02T08:29:09;36.00;34.50
65582;DHT22;52231;40.090;18.348;2023-07-02T08:31:37;36.40;34.10
65582;DHT22;52231;40.090;18.348;2023-07-02T08:34:05;36.90;33.10
65582;DHT22;52231;40.090;18.348;2023-07-02T08:36:33;37.00;34.10
65582;DHT22;52231;40.090;18.348;2023-07-02T08:39:02;36.40;34.30
65582;DHT22;52231;40.090;18.348;2023-07-02T08:41:42;36.60;36.10
65582;DHT22;52231;40.090;18.348;2023-07-02T08:44:12;36.90;33.70
65582;DHT22;52231;40.090;18.348;2023-07-02T08:46:42;36.90;34.30
65582;DHT22;52231;40.090;18.348;2023-07-02T08:49:11;36.90;33.90
65582;DHT22;52231;40.090;18.348;2023-07-02T08:51:39;36.90;34.50
65582;DHT22;52231;40.090;18.348;2023-07-02T08:54:07;37.30;34.30
65582;DHT22;52231;40.090;18.348;2023-07-02T08:56:36;37.50;34.00
65582;DHT22;52231;40.090;18.348;2023-07-02T08:59:09;37.30;34.50
65582;DHT22;52231;40.090;18.348;2023-07-02T09:01:51;37.30;33.00
65582;DHT22;52231;40.090;18.348;2023-07-02T09:04:24;37.80;32.70
65582;DHT22;52231;40.090;18.348;2023-07-02T09:07:09;37.40;33.60
65582;DHT22;52231;40.090;18.348;2023-07-02T09:09:47;37.20;34.20
65582;DHT22;52231;40.090;18.348;2023-07-02T09:12:26;37.20;33.90
65582;DHT22;52231;40.090;18.348;2023-07-02T09:15:00;37.20;34.00
65582;DHT22;52231;40.090;18.348;2023-07-02T09:17:31;37.80;33.30
65582;DHT22;52231;40.090;18.348;2023-07-02T09:20:01;37.90;32.50
65582;DHT22;52231;40.090;18.348;2023-07-02T09:22:30;37.80;32.90
65582;DHT22;52231;40.090;18.348;2023-07-02T09:25:00;36.80;33.40
65582;DHT22;52231;40.090;18.348;2023-07-02T09:27:40;35.90;36.30
65582;DHT22;52231;40.090;18.348;2023-07-02T09:30:14;35.20;37.10
65582;DHT22;52231;40.090;18.348;2023-07-02T09:32:44;34.70;38.60
65582;DHT22;52231;40.090;18.348;2023-07-02T09:35:14;34.60;38.70
65582;DHT22;52231;40.090;18.348;2023-07-02T09:37:43;34.30;40.40
65582;DHT22;52231;40.090;18.348;2023-07-02T09:40:12;34.40;40.40
65582;DHT22;52231;40.090;18.348;2023-07-02T09:42:41;35.10;39.00
65582;DHT22;52231;40.090;18.348;2023-07-02T09:45:10;35.40;38.70
65582;DHT22;52231;40.090;18.348;2023-07-02T09:47:44;34.70;39.20
65582;DHT22;52231;40.090;18.348;2023-07-02T09:50:18;34.20;40.20
65582;DHT22;52231;40.090;18.348;2023-07-02T09:52:48;33.80;41.30
65582;DHT22;52231;40.090;18.348;2023-07-02T09:55:17;33.20;42.40
65582;DHT22;52231;40.090;18.348;2023-07-02T09:57:45;32.90;43.40
65582;DHT22;52231;40.090;18.348;2023-07-02T10:00:14;33.70;42.80
65582;DHT22;52231;40.090;18.348;2023-07-02T10:02:50;34.80;41.30
65582;DHT22;52231;40.090;18.348;2023-07-02T10:05:29;35.00;40.70
65582;DHT22;52231;40.090;18.348;2023-07-02T10:07:59;35.00;40.80
65582;DHT22;52231;40.090;18.348;2023-07-02T10:10:39;35.60;39.50
65582;DHT22;52231;40.090;18.348;2023-07-02T10:13:07;36.00;38.60
65582;DHT22;52231;40.090;18.348;2023-07-02T10:15:36;36.80;37.60
65582;DHT22;52231;40.090;18.348;2023-07-02T10:18:07;36.90;37.30
65582;DHT22;52231;40.090;18.348;2023-07-02T10:20:40;35.90;38.10
65582;DHT22;52231;40.090;18.348;2023-07-02T10:23:08;35.30;39.50
65582;DHT22;52231;40.090;18.348;2023-07-02T10:25:38;35.70;39.40
65582;DHT22;52231;40.090;18.348;2023-07-02T10:28:17;35.10;39.80
65582;DHT22;52231;40.090;18.348;2023-07-02T10:30:47;34.10;41.70
65582;DHT22;52231;40.090;18.348;2023-07-02T10:33:16;33.20;43.60
65582;DHT22;52231;40.090;18.348;2023-07-02T10:35:47;32.80;44.30
65582;DHT22;52231;40.090;18.348;2023-07-02T10:38:22;33.40;43.90
65582;DHT22;52231;40.090;18.348;2023-07-02T10:40:56;33.00;43.40
65582;DHT22;52231;40.090;18.348;2023-07-02T10:43:30;33.00;45.00
65582;DHT22;52231;40.090;18.348;2023-07-02T10:46:00;33.90;43.10
65582;DHT22;52231;40.090;18.348;2023-07-02T10:48:29;34.70;40.70
65582;DHT22;52231;40.090;18.348;2023-07-02T10:50:58;35.10;40.60
65582;DHT22;52231;40.090;18.348;2023-07-02T10:53:26;35.80;38.50
65582;DHT22;52231;40.090;18.348;2023-07-02T10:55:56;36.10;37.90
65582;DHT22;52231;40.090;18.348;2023-07-02T10:58:25;35.30;38.50
65582;DHT22;52231;40.090;18.348;2023-07-02T11:00:53;34.80;39.00
65582;DHT22;52231;40.090;18.348;2023-07-02T11:03:24;34.80;38.30
65582;DHT22;52231;40.090;18.348;2023-07-02T11:05:53;35.10;38.80
65582;DHT22;52231;40.090;18.348;2023-07-02T11:08:21;34.70;39.20
65582;DHT22;52231;40.090;18.348;2023-07-02T11:10:51;34.30;39.90
65582;DHT22;52231;40.090;18.348;2023-07-02T11:13:31;34.70;40.10
65582;DHT22;52231;40.090;18.348;2023-07-02T11:15:59;35.00;39.70
65582;DHT22;52231;40.090;18.348;2023-07-02T11:18:30;35.00;38.70
65582;DHT22;52231;40.090;18.348;2023-07-02T11:21:09;35.30;38.90
65582;DHT22;52231;40.090;18.348;2023-07-02T11:23:38;35.90;38.50
65582;DHT22;52231;40.090;18.348;2023-07-02T11:26:08;35.90;38.50
65582;DHT22;52231;40.090;18.348;2023-07-02T11:28:50;36.00;37.50
65582;DHT22;52231;40.090;18.348;2023-07-02T11:31:26;35.40;38.80
65582;DHT22;52231;40.090;18.348;2023-07-02T11:33:55;35.20;38.50
65582;DHT22;52231;40.090;18.348;2023-07-02T11:36:24;35.30;38.60
65582;DHT22;52231;40.090;18.348;2023-07-02T11:38:55;34.70;39.90
65582;DHT22;52231;40.090;18.348;2023-07-02T11:41:23;35.00;39.10
65582;DHT22;52231;40.090;18.348;2023-07-02T11:43:52;35.40;39.00
65582;DHT22;52231;40.090;18.348;2023-07-02T11:46:20;35.90;38.50
65582;DHT22;52231;40.090;18.348;2023-07-02T11:48:48;36.10;38.50
65582;DHT22;52231;40.090;18.348;2023-07-02T11:51:16;36.30;38.40
65582;DHT22;52231;40.090;18.348;2023-07-02T11:53:44;36.10;38.40
65582;DHT22;52231;40.090;18.348;2023-07-02T11:56:13;35.70;38.40
65582;DHT22;52231;40.090;18.348;2023-07-02T11:58:42;35.30;38.90
65582;DHT22;52231;40.090;18.348;2023-07-02T12:01:11;34.60;39.40
65582;DHT22;52231;40.090;18.348;2023-07-02T12:03:39;34.70;40.00
65582;DHT22;52231;40.090;18.348;2023-07-02T12:06:07;34.70;40.00
65582;DHT22;52231;40.090;18.348;2023-07-02T12:08:35;34.70;39.50
65582;DHT22;52231;40.090;18.348;2023-07-02T12:11:04;34.40;39.70
65582;DHT22;52231;40.090;18.348;2023-07-02T12:13:32;34.70;39.60
65582;DHT22;52231;40.090;18.348;2023-07-02T12:16:01;34.40;39.70
65582;DHT22;52231;40.090;18.348;2023-07-02T12:18:29;34.20;40.20
65582;DHT22;52231;40.090;18.348;2023-07-02T12:20:57;34.10;40.60
65582;DHT22;52231;40.090;18.348;2023-07-02T12:23:26;34.30;40.20
65582;DHT22;52231;40.090;18.348;2023-07-02T12:25:54;34.80;39.60
65582;DHT22;52231;40.090;18.348;2023-07-02T12:28:22;34.90;39.30
65582;DHT22;52231;40.090;18.348;2023-07-02T12:30:51;34.70;40.40
65582;DHT22;52231;40.090;18.348;2023-07-02T12:33:19;34.90;39.60
65582;DHT22;52231;40.090;18.348;2023-07-02T12:35:49;35.40;38.70
65582;DHT22;52231;40.090;18.348;2023-07-02T12:38:17;35.50;38.00
65582;DHT22;52231;40.090;18.348;2023-07-02T12:40:45;35.40;38.20
65582;DHT22;52231;40.090;18.348;2023-07-02T12:43:15;34.70;39.10
65582;DHT22;52231;40.090;18.348;2023-07-02T12:45:46;34.00;40.00
65582;DHT22;52231;40.090;18.348;2023-07-02T12:48:15;33.90;41.20
65582;DHT22;52231;40.090;18.348;2023-07-02T12:50:56;33.70;41.50
65582;DHT22;52231;40.090;18.348;2023-07-02T12:53:25;34.10;41.20
65582;DHT22;52231;40.090;18.348;2023-07-02T12:55:54;34.40;40.90
65582;DHT22;52231;40.090;18.348;2023-07-02T12:58:23;34.60;40.10
65582;DHT22;52231;40.090;18.348;2023-07-02T13:00:54;34.20;40.20
65582;DHT22;52231;40.090;18.348;2023-07-02T13:03:23;33.60;41.40
65582;DHT22;52231;40.090;18.348;2023-07-02T13:05:53;33.00;41.90
65582;DHT22;52231;40.090;18.348;2023-07-02T13:08:21;32.90;42.80
65582;DHT22;52231;40.090;18.348;2023-07-02T13:10:49;32.90;43.10
65582;DHT22;52231;40.090;18.348;2023-07-02T13:13:17;32.80;42.80
65582;DHT22;52231;40.090;18.348;2023-07-02T13:15:49;32.70;43.10
65582;DHT22;52231;40.090;18.348;2023-07-02T13:18:18;32.50;43.10
65582;DHT22;52231;40.090;18.348;2023-07-02T13:20:46;32.30;43.40
65582;DHT22;52231;40.090;18.348;2023-07-02T13:23:14;32.20;44.10
65582;DHT22;52231;40.090;18.348;2023-07-02T13:25:45;32.90;43.50
65582;DHT22;52231;40.090;18.348;2023-07-02T13:28:14;33.90;42.00
65582;DHT22;52231;40.090;18.348;2023-07-02T13:30:42;34.30;40.40
65582;DHT22;52231;40.090;18.348;2023-07-02T13:33:10;34.30;40.80
65582;DHT22;52231;40.090;18.348;2023-07-02T13:35:39;33.50;41.70
65582;DHT22;52231;40.090;18.348;2023-07-02T13:38:07;33.30;42.40
65582;DHT22;52231;40.090;18.348;2023-07-02T13:40:35;33.80;41.90
65582;DHT22;52231;40.090;18.348;2023-07-02T13:43:03;33.90;41.00
65582;DHT22;52231;40.090;18.348;2023-07-02T13:45:32;33.60;41.50
65582;DHT22;52231;40.090;18.348;2023-07-02T13:48:00;32.90;42.50
65582;DHT22;52231;40.090;18.348;2023-07-02T13:50:28;32.60;43.20
65582;DHT22;52231;40.090;18.348;2023-07-02T13:52:56;32.30;44.30
65582;DHT22;52231;40.090;18.348;2023-07-02T13:55:25;32.10;44.60
65582;DHT22;52231;40.090;18.348;2023-07-02T13:57:55;31.70;45.40
65582;DHT22;52231;40.090;18.348;2023-07-02T14:00:25;31.40;46.30
65582;DHT22;52231;40.090;18.348;2023-07-02T14:02:53;31.10;47.80
65582;DHT22;52231;40.090;18.348;2023-07-02T14:05:22;31.30;46.60
65582;DHT22;52231;40.090;18.348;2023-07-02T14:07:51;31.50;46.50
65582;DHT22;52231;40.090;18.348;2023-07-02T14:10:19;31.60;46.50
65582;DHT22;52231;40.090;18.348;2023-07-02T14:12:47;31.90;46.60
65582;DHT22;52231;40.090;18.348;2023-07-02T14:15:16;32.20;45.60
65582;DHT22;52231;40.090;18.348;2023-07-02T14:17:44;32.60;44.10
65582;DHT22;52231;40.090;18.348;2023-07-02T14:20:12;32.70;44.00
65582;DHT22;52231;40.090;18.348;2023-07-02T14:22:40;32.70;43.90
65582;DHT22;52231;40.090;18.348;2023-07-02T14:25:09;32.50;44.40
65582;DHT22;52231;40.090;18.348;2023-07-02T14:27:37;32.40;44.00
65582;DHT22;52231;40.090;18.348;2023-07-02T14:30:13;32.10;44.70
65582;DHT22;52231;40.090;18.348;2023-07-02T14:32:42;31.70;45.30
65582;DHT22;52231;40.090;18.348;2023-07-02T14:35:12;31.50;45.70
65582;DHT22;52231;40.090;18.348;2023-07-02T14:37:40;31.50;45.40
65582;DHT22;52231;40.090;18.348;2023-07-02T14:40:09;31.40;45.70
65582;DHT22;52231;40.090;18.348;2023-07-02T14:42:37;31.30;46.00
65582;DHT22;52231;40.090;18.348;2023-07-02T14:45:06;31.30;46.40
65582;DHT22;52231;40.090;18.348;2023-07-02T14:47:35;31.10;46.80
65582;DHT22;52231;40.090;18.348;2023-07-02T14:50:03;30.90;46.90
65582;DHT22;52231;40.090;18.348;2023-07-02T14:52:32;30.80;47.30
65582;DHT22;52231;40.090;18.348;2023-07-02T14:55:26;30.80;47.20
65582;DHT22;52231;40.090;18.348;2023-07-02T14:57:55;30.90;46.70
65582;DHT22;52231;40.090;18.348;2023-07-02T15:00:23;30.80;45.90
65582;DHT22;52231;40.090;18.348;2023-07-02T15:02:51;30.70;46.50
65582;DHT22;52231;40.090;18.348;2023-07-02T15:05:20;30.60;46.80
65582;DHT22;52231;40.090;18.348;2023-07-02T15:07:48;30.70;46.50
65582;DHT22;52231;40.090;18.348;2023-07-02T15:10:17;30.70;46.20
65582;DHT22;52231;40.090;18.348;2023-07-02T15:12:48;30.70;46.80
65582;DHT22;52231;40.090;18.348;2023-07-02T15:15:20;30.80;46.60
65582;DHT22;52231;40.090;18.348;2023-07-02T15:17:49;30.70;46.60
65582;DHT22;52231;40.090;18.348;2023-07-02T15:20:18;30.70;46.40
65582;DHT22;52231;40.090;18.348;2023-07-02T15:22:46;30.60;47.10
65582;DHT22;52231;40.090;18.348;2023-07-02T15:25:14;30.70;47.30
65582;DHT22;52231;40.090;18.348;2023-07-02T15:27:43;30.70;46.40